createdAt,value
2019-05-02T00:00:32.098Z,35.05
2019-05-02T00:02:53.529Z,36.23
2019-05-02T00:05:14.823Z,31.35
2019-05-02T00:07:36.299Z,32.23
2019-05-02T00:09:57.781Z,33.40
2019-05-02T00:12:19.568Z,32.63
2019-05-02T00:14:41.702Z,31.37
2019-05-02T00:17:06.947Z,35.13
2019-05-02T00:19:28.442Z,30.80
2019-05-02T00:21:49.699Z,31.65
2019-05-02T00:24:12.808Z,33.28
2019-05-02T00:26:34.378Z,35.78
2019-05-02T00:28:55.899Z,30.70
2019-05-02T00:31:19.984Z,36.70
2019-05-02T00:33:41.891Z,31.93
2019-05-02T00:36:03.278Z,34.30
2019-05-02T00:38:24.926Z,31.25
2019-05-02T00:40:46.629Z,32.75
2019-05-02T00:43:07.874Z,38.23
2019-05-02T00:45:29.386Z,36.98
2019-05-02T00:48:07.507Z,32.93
2019-05-02T00:50:30.750Z,36.25
2019-05-02T00:52:52.244Z,31.82
2019-05-02T00:55:13.744Z,38.58
2019-05-02T00:57:35.152Z,35.73
2019-05-02T00:59:56.552Z,34.40
2019-05-02T01:02:19.928Z,38.30
2019-05-02T01:04:48.306Z,34.50
2019-05-02T01:07:09.682Z,36.45
2019-05-02T01:09:31.777Z,40.83
2019-05-02T01:11:53.205Z,39.95
2019-05-02T01:14:14.783Z,37.03
2019-05-02T01:16:36.062Z,39.70
2019-05-02T01:18:57.385Z,36.28
2019-05-02T01:21:18.785Z,38.83
2019-05-02T01:23:40.297Z,38.63
2019-05-02T01:26:01.988Z,35.83
2019-05-02T01:28:42.014Z,38.95
2019-05-02T01:31:05.752Z,39.38
2019-05-02T01:33:31.668Z,39.18
2019-05-02T01:35:55.330Z,36.40
2019-05-02T01:38:18.680Z,36.03
2019-05-02T01:40:40.300Z,30.68
2019-05-02T01:43:24.219Z,40.12
2019-05-02T01:45:46.581Z,36.35
2019-05-02T01:48:09.709Z,39.45
2019-05-02T01:50:33.602Z,40.92
2019-05-02T01:53:00.664Z,35.98
2019-05-02T01:55:22.374Z,37.23
2019-05-02T01:57:44.704Z,36.20
2019-05-02T02:00:09.533Z,37.45
2019-05-02T02:02:32.761Z,33.58
2019-05-02T02:04:56.946Z,36.28
2019-05-02T02:07:20.053Z,41.23
2019-05-02T02:09:43.956Z,35.10
2019-05-02T02:12:04.906Z,35.40
2019-05-02T02:14:27.633Z,36.08
2019-05-02T02:16:49.117Z,37.40
2019-05-02T02:19:12.518Z,37.50
2019-05-02T02:21:35.834Z,38.77
2019-05-02T02:23:59.135Z,33.50
2019-05-02T02:26:23.248Z,35.10
2019-05-02T02:28:51.017Z,35.98
2019-05-02T02:31:12.611Z,37.83
2019-05-02T02:33:34.140Z,34.50
2019-05-02T02:35:55.445Z,34.38
2019-05-02T02:38:16.907Z,35.52
2019-05-02T02:40:38.543Z,34.65
2019-05-02T02:43:10.198Z,35.03
2019-05-02T02:45:31.554Z,34.13
2019-05-02T02:47:59.928Z,35.73
2019-05-02T02:50:16.391Z,33.40
2019-05-02T02:52:44.464Z,33.28
2019-05-02T02:55:02.533Z,35.95
2019-05-02T02:57:28.090Z,33.15
2019-05-02T02:59:47.419Z,35.03
2019-05-02T03:02:11.592Z,37.40
2019-05-02T03:04:32.017Z,32.13
2019-05-02T03:06:54.146Z,34.08
2019-05-02T03:09:20.372Z,30.77
2019-05-02T03:11:40.856Z,29.35
2019-05-02T03:14:09.978Z,33.92
2019-05-02T03:16:45.881Z,38.67
2019-05-02T03:18:59.145Z,32.38
2019-05-02T03:21:22.508Z,36.68
2019-05-02T03:23:43.761Z,33.30
2019-05-02T03:26:08.031Z,36.30
2019-05-02T03:28:28.977Z,33.78
2019-05-02T03:30:50.689Z,37.25
2019-05-02T03:33:12.589Z,33.83
2019-05-02T03:35:44.648Z,31.07
2019-05-02T03:37:57.761Z,33.25
2019-05-02T03:40:19.373Z,35.98
2019-05-02T03:42:44.732Z,31.82
2019-05-02T03:45:05.127Z,31.63
2019-05-02T03:47:26.775Z,28.92
2019-05-02T03:49:49.414Z,27.48
2019-05-02T03:52:11.572Z,34.20
2019-05-02T03:54:33.080Z,33.60
2019-05-02T03:56:54.515Z,30.23
2019-05-02T03:59:16.234Z,32.08
2019-05-02T04:01:41.203Z,32.85
2019-05-02T04:04:01.531Z,29.63
2019-05-02T04:06:23.759Z,28.02
2019-05-02T04:08:45.480Z,30.12
2019-05-02T04:11:38.356Z,32.45
2019-05-02T04:13:51.036Z,28.45
2019-05-02T04:16:15.464Z,29.12
2019-05-02T04:18:36.054Z,31.55
2019-05-02T04:20:57.838Z,27.87
2019-05-02T04:23:21.197Z,31.07
2019-05-02T04:25:42.362Z,31.30
2019-05-02T04:28:05.933Z,28.65
2019-05-02T04:30:27.237Z,29.90
2019-05-02T04:32:49.707Z,29.05
2019-05-02T04:35:12.339Z,23.73
2019-05-02T04:37:34.480Z,27.75
2019-05-02T04:40:00.706Z,30.52
2019-05-02T04:42:23.137Z,28.00
2019-05-02T04:45:07.512Z,24.10
2019-05-02T04:47:16.630Z,24.23
2019-05-02T04:49:35.610Z,23.47
2019-05-02T04:52:04.744Z,24.00
2019-05-02T04:54:25.723Z,24.37
2019-05-02T04:56:49.631Z,24.65
2019-05-02T04:59:13.798Z,23.40
2019-05-02T05:01:33.101Z,18.77
2019-05-02T05:03:58.389Z,23.20
2019-05-02T05:06:13.675Z,23.02
2019-05-02T05:08:35.083Z,23.77
2019-05-02T05:10:57.365Z,26.45
2019-05-02T05:13:22.750Z,21.75
2019-05-02T05:15:48.840Z,23.90
2019-05-02T05:18:10.620Z,24.97
2019-05-02T05:20:32.233Z,21.68
2019-05-02T05:22:53.740Z,23.27
2019-05-02T05:25:21.219Z,25.50
2019-05-02T05:27:40.340Z,22.98
2019-05-02T05:30:09.152Z,24.45
2019-05-02T05:32:28.070Z,23.62
2019-05-02T05:34:49.681Z,26.00
2019-05-02T05:37:13.316Z,25.85
2019-05-02T05:39:35.091Z,24.40
2019-05-02T05:41:57.859Z,23.87
2019-05-02T05:44:23.301Z,23.38
2019-05-02T05:46:42.898Z,24.40
2019-05-02T05:49:04.394Z,23.92
2019-05-02T05:51:27.621Z,22.55
2019-05-02T05:53:52.329Z,23.27
2019-05-02T05:56:12.377Z,24.92
2019-05-02T05:58:34.377Z,25.77
2019-05-02T06:00:58.355Z,19.25
2019-05-02T06:03:19.264Z,26.33
2019-05-02T06:05:42.176Z,24.52
2019-05-02T06:08:03.935Z,23.05
2019-05-02T06:10:25.346Z,20.80
2019-05-02T06:12:46.875Z,25.50
2019-05-02T06:15:08.265Z,22.55
2019-05-02T06:17:30.441Z,23.30
2019-05-02T06:19:53.610Z,21.42
2019-05-02T06:22:16.516Z,24.92
2019-05-02T06:24:39.265Z,16.10
2019-05-02T06:27:00.769Z,19.60
2019-05-02T06:29:22.253Z,25.85
2019-05-02T06:31:44.431Z,19.98
2019-05-02T06:34:07.054Z,21.52
2019-05-02T06:36:32.109Z,17.10
2019-05-02T06:38:56.732Z,20.40
2019-05-02T06:41:21.027Z,19.00
2019-05-02T06:43:41.081Z,18.90
2019-05-02T06:46:15.505Z,21.48
2019-05-02T06:48:27.262Z,19.92
2019-05-02T06:50:48.854Z,20.48
2019-05-02T06:53:11.239Z,20.32
2019-05-02T06:55:36.349Z,21.07
2019-05-02T06:57:57.108Z,21.73
2019-05-02T07:00:19.443Z,18.87
2019-05-02T07:02:41.085Z,19.02
2019-05-02T07:05:05.089Z,19.50
2019-05-02T07:07:31.388Z,16.20
2019-05-02T07:10:09.654Z,17.23
2019-05-02T07:12:31.009Z,21.33
2019-05-02T07:14:55.997Z,18.57
2019-05-02T07:17:20.600Z,25.70
2019-05-02T07:20:03.743Z,17.50
2019-05-02T07:22:22.495Z,20.48
2019-05-02T07:24:44.399Z,23.95
2019-05-02T07:27:05.906Z,16.75
2019-05-02T07:29:33.274Z,18.57
2019-05-02T07:31:54.666Z,16.85
2019-05-02T07:34:16.253Z,20.70
2019-05-02T07:36:38.373Z,20.05
2019-05-02T07:39:05.156Z,18.82
2019-05-02T07:41:24.269Z,17.55
2019-05-02T07:43:46.545Z,19.35
2019-05-02T07:46:08.430Z,18.90
2019-05-02T07:48:31.284Z,21.33
2019-05-02T07:50:53.423Z,24.00
2019-05-02T07:53:15.305Z,19.45
2019-05-02T07:55:40.741Z,19.92
2019-05-02T07:58:08.295Z,21.87
2019-05-02T08:00:32.175Z,21.77
2019-05-02T08:02:57.944Z,17.07
2019-05-02T08:05:21.620Z,14.90
2019-05-02T08:07:40.086Z,19.12
2019-05-02T08:10:02.420Z,22.42
2019-05-02T08:12:23.820Z,17.90
2019-05-02T08:14:45.371Z,23.83
2019-05-02T08:17:16.173Z,21.90
2019-05-02T08:19:30.061Z,24.87
2019-05-02T08:21:51.453Z,23.38
2019-05-02T08:24:12.969Z,19.87
2019-05-02T08:26:48.117Z,21.35
2019-05-02T08:29:11.115Z,21.15
2019-05-02T08:31:33.143Z,18.32
2019-05-02T08:33:54.643Z,21.33
2019-05-02T08:36:16.232Z,15.78
2019-05-02T08:38:37.856Z,18.73
2019-05-02T08:40:59.302Z,17.17
2019-05-02T08:43:20.669Z,19.57
2019-05-02T08:45:42.267Z,19.87
2019-05-02T08:48:05.278Z,17.32
2019-05-02T08:50:31.392Z,23.87
2019-05-02T08:52:50.244Z,14.43
2019-05-02T08:55:11.675Z,19.23
2019-05-02T08:57:34.642Z,19.62
2019-05-02T09:00:00.245Z,19.20
2019-05-02T09:02:21.123Z,18.20
2019-05-02T09:04:42.855Z,19.17
2019-05-02T09:07:04.511Z,14.78
2019-05-02T09:09:28.198Z,20.02
2019-05-02T09:12:04.854Z,18.63
2019-05-02T09:14:12.593Z,15.85
2019-05-02T09:16:34.181Z,18.35
2019-05-02T09:18:55.679Z,18.85
2019-05-02T09:21:17.046Z,16.80
2019-05-02T09:23:41.145Z,14.93
2019-05-02T09:26:02.598Z,19.65
2019-05-02T09:28:25.514Z,19.30
2019-05-02T09:30:47.052Z,18.23
2019-05-02T09:33:08.424Z,17.85
2019-05-02T09:35:29.912Z,20.05
2019-05-02T09:37:52.292Z,14.43
2019-05-02T09:40:16.745Z,20.10
2019-05-02T09:42:37.442Z,14.90
2019-05-02T09:44:59.267Z,15.88
2019-05-02T09:47:22.416Z,16.57
2019-05-02T09:49:49.111Z,16.32
2019-05-02T09:52:11.876Z,19.52
2019-05-02T09:54:36.962Z,18.73
2019-05-02T09:56:56.687Z,13.68
2019-05-02T09:59:29.256Z,21.37
2019-05-02T10:01:43.727Z,15.93
2019-05-02T10:04:05.318Z,13.88
2019-05-02T10:06:26.865Z,14.53
2019-05-02T10:08:48.438Z,13.78
2019-05-02T10:11:11.640Z,13.28
2019-05-02T10:13:33.151Z,14.58
2019-05-02T10:15:54.569Z,12.20
2019-05-02T10:18:19.636Z,11.10
2019-05-02T10:20:39.479Z,13.47
2019-05-02T10:23:03.771Z,11.48
2019-05-02T10:25:25.385Z,10.85
2019-05-02T10:27:47.588Z,9.68
2019-05-02T10:30:13.389Z,10.98
2019-05-02T10:32:32.553Z,10.58
2019-05-02T10:34:56.821Z,13.25
2019-05-02T10:37:17.329Z,13.72
2019-05-02T10:39:38.753Z,11.90
2019-05-02T10:42:02.110Z,10.45
2019-05-02T10:44:27.223Z,12.45
2019-05-02T10:46:48.665Z,11.10
2019-05-02T10:49:28.357Z,13.60
2019-05-02T10:51:53.688Z,14.55
2019-05-02T10:54:14.954Z,14.78
2019-05-02T10:56:36.508Z,12.10
2019-05-02T10:58:58.084Z,11.12
2019-05-02T11:01:21.931Z,13.45
2019-05-02T11:08:31.721Z,10.58
2019-05-02T11:10:53.070Z,11.83
2019-05-02T11:13:16.282Z,9.50
2019-05-02T11:15:48.404Z,12.27
2019-05-02T11:18:09.824Z,13.35
2019-05-02T11:20:31.907Z,9.13
2019-05-02T11:22:54.616Z,11.40
2019-05-02T11:25:16.406Z,14.03
2019-05-02T11:27:37.998Z,11.15
2019-05-02T11:29:59.374Z,10.80
2019-05-02T11:32:22.092Z,10.93
2019-05-02T11:34:43.870Z,9.15
2019-05-02T11:37:07.076Z,13.03
2019-05-02T11:39:37.568Z,10.48
2019-05-02T11:41:52.727Z,12.50
2019-05-02T11:44:14.483Z,13.65
2019-05-02T11:46:37.467Z,9.80
2019-05-02T11:48:59.278Z,12.58
2019-05-02T11:51:22.525Z,12.07
2019-05-02T11:53:44.233Z,13.33
2019-05-02T11:56:07.540Z,14.90
2019-05-02T11:58:29.015Z,9.08
2019-05-02T12:00:52.298Z,9.83
2019-05-02T12:03:35.108Z,10.10
2019-05-02T12:05:53.788Z,15.20
2019-05-02T12:08:16.628Z,12.88
2019-05-02T12:10:37.906Z,10.28
2019-05-02T12:12:59.526Z,13.95
2019-05-02T12:15:21.662Z,11.55
2019-05-02T12:17:43.105Z,10.55
2019-05-02T12:20:05.207Z,9.13
2019-05-02T12:22:26.721Z,8.88
2019-05-02T12:24:48.326Z,11.43
2019-05-02T12:27:11.726Z,10.05
2019-05-02T12:29:33.629Z,9.28
2019-05-02T12:31:56.525Z,10.63
2019-05-02T12:34:18.104Z,11.25
2019-05-02T12:36:39.395Z,10.45
2019-05-02T12:39:02.432Z,10.20
2019-05-02T12:41:25.268Z,6.63
2019-05-02T12:43:47.204Z,8.28
2019-05-02T12:46:08.718Z,10.32
2019-05-02T12:48:30.222Z,9.83
2019-05-02T12:50:52.756Z,7.65
2019-05-02T12:53:14.430Z,7.62
2019-05-02T12:55:35.861Z,11.95
2019-05-02T12:57:57.394Z,11.60
2019-05-02T13:00:19.020Z,9.03
2019-05-02T13:02:58.748Z,11.85
2019-05-02T13:05:22.099Z,8.28
2019-05-02T13:07:50.743Z,8.03
2019-05-02T13:10:11.356Z,7.55
2019-05-02T13:12:34.866Z,6.62
2019-05-02T13:14:56.459Z,11.03
2019-05-02T13:17:18.078Z,9.13
2019-05-02T13:19:41.372Z,7.30
2019-05-02T13:22:07.820Z,7.62
2019-05-02T13:24:36.957Z,10.08
2019-05-02T13:26:59.674Z,7.42
2019-05-02T13:29:22.497Z,6.20
2019-05-02T13:31:46.121Z,7.30
2019-05-02T13:34:22.121Z,5.70
2019-05-02T13:36:47.507Z,6.58
2019-05-02T13:39:12.386Z,6.50
2019-05-02T13:41:34.142Z,5.90
2019-05-02T13:43:55.542Z,8.23
2019-05-02T13:46:19.167Z,6.87
2019-05-02T13:48:42.745Z,9.68
2019-05-02T13:51:04.227Z,5.58
2019-05-02T13:53:25.730Z,7.97
2019-05-02T13:55:48.929Z,9.90
2019-05-02T13:58:11.806Z,6.53
2019-05-02T14:00:37.980Z,8.93
2019-05-02T14:02:59.459Z,10.93
2019-05-02T14:05:22.219Z,8.48
2019-05-02T14:07:48.241Z,12.88
2019-05-02T14:10:13.471Z,7.28
2019-05-02T14:12:42.684Z,8.08
2019-05-02T14:15:05.111Z,6.45
2019-05-02T14:17:27.000Z,5.62
2019-05-02T14:19:48.473Z,6.67
2019-05-02T14:22:10.004Z,9.83
2019-05-02T14:24:32.368Z,8.30
2019-05-02T14:26:54.480Z,8.00
2019-05-02T14:29:16.422Z,7.42
2019-05-02T14:31:37.877Z,6.92
2019-05-02T14:34:17.519Z,11.03
2019-05-02T14:36:39.458Z,9.63
2019-05-02T14:39:02.394Z,7.30
2019-05-02T14:41:30.012Z,14.18
2019-05-02T14:43:52.520Z,10.45
2019-05-02T14:46:13.867Z,9.50
2019-05-02T14:48:43.607Z,8.38
2019-05-02T14:51:02.079Z,10.28
2019-05-02T14:53:25.587Z,10.28
2019-05-02T14:55:48.946Z,8.10
2019-05-02T14:58:12.295Z,5.55
2019-05-02T15:00:39.362Z,8.18
2019-05-02T15:02:58.626Z,8.35
2019-05-02T15:05:28.241Z,8.23
2019-05-02T15:07:43.192Z,6.55
2019-05-02T15:10:06.734Z,8.95
2019-05-02T15:12:28.448Z,5.15
2019-05-02T15:14:57.010Z,8.75
2019-05-02T15:17:14.801Z,6.03
2019-05-02T15:19:36.450Z,5.42
2019-05-02T15:21:58.008Z,5.95
2019-05-02T15:24:19.598Z,5.65
2019-05-02T15:26:41.846Z,5.83
2019-05-02T15:29:06.420Z,7.33
2019-05-02T15:31:32.440Z,6.75
2019-05-02T15:34:05.904Z,6.92
2019-05-02T15:36:27.418Z,7.62
2019-05-02T15:38:48.907Z,7.17
2019-05-02T15:41:12.851Z,6.30
2019-05-02T15:43:33.631Z,9.20
2019-05-02T15:45:55.119Z,7.53
2019-05-02T15:48:22.709Z,12.58
2019-05-02T15:50:50.138Z,5.05
2019-05-02T15:53:12.493Z,7.33
2019-05-02T15:55:39.562Z,7.62
2019-05-02T15:57:57.844Z,6.72
2019-05-02T16:00:25.770Z,5.85
2019-05-02T16:02:47.227Z,7.75
2019-05-02T16:05:08.831Z,7.65
2019-05-02T16:07:32.495Z,6.90
2019-05-02T16:09:57.265Z,8.30
2019-05-02T16:12:17.277Z,5.42
2019-05-02T16:14:38.758Z,7.55
2019-05-02T16:17:03.131Z,4.30
2019-05-02T16:19:29.154Z,7.30
2019-05-02T16:24:22.940Z,5.83
2019-05-02T16:26:46.737Z,8.50
2019-05-02T16:29:07.976Z,5.53
2019-05-02T16:31:31.508Z,5.97
2019-05-02T16:33:54.796Z,5.05
2019-05-02T16:36:16.454Z,6.62
2019-05-02T16:38:38.069Z,7.80
2019-05-02T16:41:04.034Z,6.47
2019-05-02T16:43:24.936Z,6.62
2019-05-02T16:45:46.735Z,4.92
2019-05-02T16:48:08.367Z,7.08
2019-05-02T16:50:35.226Z,4.47
2019-05-02T16:52:53.516Z,5.03
2019-05-02T16:55:21.145Z,3.90
2019-05-02T16:57:38.259Z,5.05
2019-05-02T17:00:02.379Z,5.33
2019-05-02T17:02:23.159Z,6.33
2019-05-02T17:04:44.655Z,6.62
2019-05-02T17:07:08.108Z,5.95
2019-05-02T17:09:33.519Z,10.35
2019-05-02T17:11:55.225Z,9.15
2019-05-02T17:14:16.749Z,5.87
2019-05-02T17:16:38.354Z,3.67
2019-05-02T17:19:01.675Z,7.95
2019-05-02T17:21:26.821Z,4.28
2019-05-02T17:23:49.624Z,5.65
2019-05-02T17:26:09.789Z,7.47
2019-05-02T17:28:31.818Z,7.17
2019-05-02T17:30:53.409Z,5.90
2019-05-02T17:33:16.393Z,9.95
2019-05-02T17:35:41.604Z,5.85
2019-05-02T17:38:02.525Z,4.47
2019-05-02T17:40:26.020Z,8.00
2019-05-02T17:42:49.871Z,9.10
2019-05-02T17:45:11.430Z,8.13
2019-05-02T17:47:36.240Z,5.03
2019-05-02T17:49:58.378Z,5.83
2019-05-02T17:52:32.497Z,6.17
2019-05-02T17:54:57.335Z,7.58
2019-05-02T17:57:17.546Z,7.53
2019-05-02T17:59:39.225Z,12.82
2019-05-02T18:02:01.849Z,8.40
2019-05-02T18:04:23.557Z,7.60
2019-05-02T18:06:46.811Z,11.48
2019-05-02T18:09:08.752Z,13.00
2019-05-02T18:11:36.481Z,8.23
2019-05-02T18:13:54.336Z,12.75
2019-05-02T18:16:16.792Z,7.30
2019-05-02T18:18:45.434Z,8.13
2019-05-02T18:21:02.042Z,9.50
2019-05-02T18:23:27.523Z,9.33
2019-05-02T18:25:47.065Z,4.53
2019-05-02T18:28:08.435Z,9.95
2019-05-02T18:30:30.073Z,8.35
2019-05-02T18:32:52.861Z,8.18
2019-05-02T18:35:14.673Z,14.23
2019-05-02T18:37:45.103Z,10.45
2019-05-02T18:40:03.082Z,10.10
2019-05-02T18:42:25.604Z,10.70
2019-05-02T18:44:48.349Z,11.88
2019-05-02T18:47:12.556Z,9.23
2019-05-02T18:49:34.842Z,8.83
2019-05-02T18:51:57.485Z,10.58
2019-05-02T18:54:21.630Z,8.85
2019-05-02T18:56:49.368Z,8.20
2019-05-02T18:59:05.987Z,8.45
2019-05-02T19:01:27.842Z,11.03
2019-05-02T19:03:52.402Z,33.38
2019-05-02T19:06:12.719Z,30.95
2019-05-02T19:08:45.144Z,24.02
2019-05-02T19:11:05.909Z,15.15
2019-05-02T19:13:22.302Z,14.40
2019-05-02T19:15:47.270Z,15.80
2019-05-02T19:18:10.626Z,14.58
2019-05-02T19:20:45.934Z,59.20
2019-05-02T19:23:02.928Z,30.90
2019-05-02T19:25:24.404Z,18.07
2019-05-02T19:27:52.160Z,19.82
2019-05-02T19:30:14.014Z,22.58
2019-05-02T19:32:35.859Z,16.57
2019-05-02T19:34:57.814Z,21.77
2019-05-02T19:37:21.702Z,19.23
2019-05-02T19:39:44.689Z,18.92
2019-05-02T19:42:06.606Z,18.27
2019-05-02T19:44:29.626Z,20.90
2019-05-02T19:46:51.957Z,14.47
2019-05-02T19:49:16.225Z,13.93
2019-05-02T19:51:37.002Z,16.30
2019-05-02T19:53:59.658Z,13.30
2019-05-02T19:56:22.012Z,15.87
2019-05-02T19:58:52.553Z,13.25
2019-05-02T20:01:22.287Z,73.72
2019-05-02T20:03:42.295Z,32.23
2019-05-02T20:06:06.088Z,20.85
2019-05-02T20:08:27.351Z,15.83
2019-05-02T20:10:49.211Z,12.63
2019-05-02T20:13:12.278Z,13.17
2019-05-02T20:15:35.769Z,12.65
2019-05-02T20:18:00.676Z,15.43
2019-05-02T20:20:40.479Z,13.13
2019-05-02T20:23:02.784Z,12.55
2019-05-02T20:25:24.091Z,16.12
2019-05-02T20:27:45.552Z,12.33
2019-05-02T20:30:07.140Z,15.58
2019-05-02T20:32:28.719Z,13.95
2019-05-02T20:34:50.356Z,15.03
2019-05-02T20:37:12.728Z,19.65
2019-05-02T20:39:34.546Z,14.30
2019-05-02T20:41:56.168Z,16.45
2019-05-02T20:44:17.733Z,15.15
2019-05-02T20:46:39.654Z,14.15
2019-05-02T20:49:01.996Z,13.68
2019-05-02T20:51:23.568Z,13.18
2019-05-02T20:53:45.073Z,15.38
2019-05-02T20:56:06.385Z,20.08
2019-05-02T20:58:27.768Z,15.15
2019-05-02T21:00:49.263Z,17.77
2019-05-02T21:03:11.948Z,12.73
2019-05-02T21:05:38.637Z,13.90
2019-05-02T21:08:07.751Z,14.03
2019-05-02T21:10:37.025Z,15.58
2019-05-02T21:12:58.456Z,16.57
2019-05-02T21:15:21.725Z,15.43
2019-05-02T21:17:43.272Z,13.90
2019-05-02T21:20:06.652Z,17.87
2019-05-02T21:22:28.242Z,17.87
2019-05-02T21:24:49.845Z,17.27
2019-05-02T21:27:11.285Z,16.15
2019-05-02T21:29:33.002Z,12.45
2019-05-02T21:31:54.589Z,18.67
2019-05-02T21:34:22.358Z,17.85
2019-05-02T21:36:44.010Z,14.15
2019-05-02T21:39:09.227Z,15.63
2019-05-02T21:41:32.844Z,19.17
2019-05-02T21:43:54.092Z,14.75
2019-05-02T21:46:15.366Z,14.43
2019-05-02T21:48:36.766Z,17.73
2019-05-02T21:51:00.256Z,15.48
2019-05-02T21:53:29.347Z,15.45
2019-05-02T21:56:02.823Z,13.28
2019-05-02T21:58:24.579Z,17.10
2019-05-02T22:00:56.648Z,16.60
2019-05-02T22:03:18.249Z,13.72
2019-05-02T22:05:39.641Z,17.10
2019-05-02T22:08:02.909Z,14.20
2019-05-02T22:10:24.209Z,11.63
2019-05-02T22:12:45.486Z,16.07
2019-05-02T22:15:07.000Z,16.95
2019-05-02T22:17:28.327Z,18.60
2019-05-02T22:19:49.734Z,17.77
2019-05-02T22:22:12.244Z,17.52
2019-05-02T22:24:34.113Z,14.68
2019-05-02T22:26:55.752Z,16.32
2019-05-02T22:29:17.321Z,20.57
2019-05-02T22:31:38.626Z,17.75
2019-05-02T22:34:01.993Z,24.25
2019-05-02T22:36:23.417Z,21.17
2019-05-02T22:38:46.653Z,18.42
2019-05-02T22:41:08.563Z,18.65
2019-05-02T22:43:35.414Z,14.65
2019-05-02T22:45:56.922Z,18.57
2019-05-02T22:48:18.546Z,15.53
2019-05-02T22:50:41.784Z,15.40
2019-05-02T22:53:03.321Z,16.82
2019-05-02T22:55:24.908Z,20.12
2019-05-02T22:57:46.501Z,14.70
2019-05-02T23:00:08.019Z,19.67
2019-05-02T23:02:29.732Z,13.90
2019-05-02T23:04:52.631Z,16.75
2019-05-02T23:07:14.946Z,13.33
2019-05-02T23:09:36.434Z,18.23
2019-05-02T23:11:57.729Z,13.13
2019-05-02T23:14:19.142Z,14.80
2019-05-02T23:16:42.653Z,12.53
2019-05-02T23:19:03.742Z,16.62
2019-05-02T23:21:25.355Z,18.20
2019-05-02T23:23:46.725Z,14.87
2019-05-02T23:26:10.115Z,15.45
2019-05-02T23:28:36.303Z,15.87
2019-05-02T23:30:57.795Z,14.43
2019-05-02T23:33:19.747Z,12.78
2019-05-02T23:35:43.042Z,13.83
2019-05-02T23:38:04.460Z,11.48
2019-05-02T23:40:25.964Z,16.95
2019-05-02T23:42:47.595Z,10.60
2019-05-02T23:45:09.212Z,12.13
2019-05-02T23:47:30.600Z,12.28
2019-05-02T23:49:52.216Z,13.05
2019-05-02T23:52:13.780Z,12.18
2019-05-02T23:54:35.368Z,10.60
2019-05-02T23:56:57.648Z,10.63
2019-05-02T23:59:19.263Z,12.07
